sensor_id;sensor_type;location;lat;lon;timestamp;P1;durP1;ratioP1;P2;durP2;ratioP2
51612;SDS011;37694;51.748;14.326;2023-07-31T00:00:14;4.97;;;2.60;;
51612;SDS011;37694;51.748;14.326;2023-07-31T00:02:41;3.92;;;2.58;;
51612;SDS011;37694;51.748;14.326;2023-07-31T00:05:08;3.47;;;2.40;;
51612;SDS011;37694;51.748;14.326;2023-07-31T00:07:34;6.13;;;2.83;;
51612;SDS011;37694;51.748;14.326;2023-07-31T00:10:00;3.67;;;2.55;;
51612;SDS011;37694;51.748;14.326;2023-07-31T00:12:26;3.53;;;2.42;;
51612;SDS011;37694;51.748;14.326;2023-07-31T00:14:52;3.42;;;2.42;;
51612;SDS011;37694;51.748;14.326;2023-07-31T00:17:17;3.42;;;2.55;;
51612;SDS011;37694;51.748;14.326;2023-07-31T00:19:43;2.15;;;1.95;;
51612;SDS011;37694;51.748;14.326;2023-07-31T00:22:11;2.40;;;2.20;;
51612;SDS011;37694;51.748;14.326;2023-07-31T00:24:37;5.10;;;2.70;;
51612;SDS011;37694;51.748;14.326;2023-07-31T00:27:02;3.70;;;2.33;;
51612;SDS011;37694;51.748;14.326;2023-07-31T00:29:28;3.75;;;2.25;;
51612;SDS011;37694;51.748;14.326;2023-07-31T00:31:54;3.15;;;2.50;;
51612;SDS011;37694;51.748;14.326;2023-07-31T00:34:20;3.67;;;2.72;;
51612;SDS011;37694;51.748;14.326;2023-07-31T00:36:45;3.08;;;2.38;;
51612;SDS011;37694;51.748;14.326;2023-07-31T00:39:11;3.55;;;2.60;;
51612;SDS011;37694;51.748;14.326;2023-07-31T00:41:36;3.45;;;2.58;;
51612;SDS011;37694;51.748;14.326;2023-07-31T00:44:02;4.97;;;2.25;;
51612;SDS011;37694;51.748;14.326;2023-07-31T00:46:28;8.15;;;2.60;;
51612;SDS011;37694;51.748;14.326;2023-07-31T00:48:54;6.10;;;2.58;;
51612;SDS011;37694;51.748;14.326;2023-07-31T00:51:19;3.42;;;2.40;;
51612;SDS011;37694;51.748;14.326;2023-07-31T00:53:46;5.47;;;2.70;;
51612;SDS011;37694;51.748;14.326;2023-07-31T00:56:12;3.58;;;2.47;;
51612;SDS011;37694;51.748;14.326;2023-07-31T00:58:38;3.97;;;2.50;;
51612;SDS011;37694;51.748;14.326;2023-07-31T01:01:04;3.55;;;2.55;;
51612;SDS011;37694;51.748;14.326;2023-07-31T01:03:30;2.60;;;2.38;;
51612;SDS011;37694;51.748;14.326;2023-07-31T01:11:28;4.38;;;2.28;;
51612;SDS011;37694;51.748;14.326;2023-07-31T01:13:56;3.88;;;2.22;;
51612;SDS011;37694;51.748;14.326;2023-07-31T01:16:22;7.97;;;2.58;;
51612;SDS011;37694;51.748;14.326;2023-07-31T01:18:49;2.35;;;2.13;;
51612;SDS011;37694;51.748;14.326;2023-07-31T01:27:29;3.35;;;2.45;;
51612;SDS011;37694;51.748;14.326;2023-07-31T01:30:03;4.90;;;2.40;;
51612;SDS011;37694;51.748;14.326;2023-07-31T01:32:36;4.28;;;2.45;;
51612;SDS011;37694;51.748;14.326;2023-07-31T01:35:05;4.05;;;2.25;;
51612;SDS011;37694;51.748;14.326;2023-07-31T01:37:32;5.07;;;2.20;;
51612;SDS011;37694;51.748;14.326;2023-07-31T01:39:58;2.80;;;2.50;;
51612;SDS011;37694;51.748;14.326;2023-07-31T01:42:23;5.15;;;2.58;;
51612;SDS011;37694;51.748;14.326;2023-07-31T01:44:49;4.03;;;2.67;;
51612;SDS011;37694;51.748;14.326;2023-07-31T01:47:14;5.65;;;2.20;;
51612;SDS011;37694;51.748;14.326;2023-07-31T01:49:40;3.17;;;2.10;;
51612;SDS011;37694;51.748;14.326;2023-07-31T01:52:06;6.25;;;2.50;;
51612;SDS011;37694;51.748;14.326;2023-07-31T01:54:32;2.47;;;1.90;;
51612;SDS011;37694;51.748;14.326;2023-07-31T01:56:58;3.78;;;2.17;;
51612;SDS011;37694;51.748;14.326;2023-07-31T01:59:24;3.78;;;2.28;;
51612;SDS011;37694;51.748;14.326;2023-07-31T02:01:50;3.17;;;1.95;;
51612;SDS011;37694;51.748;14.326;2023-07-31T02:04:15;5.13;;;1.90;;
51612;SDS011;37694;51.748;14.326;2023-07-31T02:06:41;4.18;;;2.08;;
51612;SDS011;37694;51.748;14.326;2023-07-31T02:09:07;3.95;;;2.13;;
51612;SDS011;37694;51.748;14.326;2023-07-31T02:11:32;1.70;;;1.60;;
51612;SDS011;37694;51.748;14.326;2023-07-31T02:13:58;4.88;;;2.15;;
51612;SDS011;37694;51.748;14.326;2023-07-31T02:16:23;3.90;;;2.50;;
51612;SDS011;37694;51.748;14.326;2023-07-31T02:18:49;6.28;;;2.40;;
51612;SDS011;37694;51.748;14.326;2023-07-31T02:21:15;3.50;;;2.53;;
51612;SDS011;37694;51.748;14.326;2023-07-31T02:23:40;6.13;;;2.28;;
51612;SDS011;37694;51.748;14.326;2023-07-31T02:26:06;7.10;;;2.55;;
51612;SDS011;37694;51.748;14.326;2023-07-31T02:28:31;2.85;;;2.58;;
51612;SDS011;37694;51.748;14.326;2023-07-31T02:30:57;7.22;;;2.65;;
51612;SDS011;37694;51.748;14.326;2023-07-31T02:33:23;6.10;;;2.30;;
51612;SDS011;37694;51.748;14.326;2023-07-31T02:35:49;3.05;;;2.10;;
51612;SDS011;37694;51.748;14.326;2023-07-31T02:38:14;2.50;;;1.88;;
51612;SDS011;37694;51.748;14.326;2023-07-31T02:40:40;3.03;;;2.35;;
51612;SDS011;37694;51.748;14.326;2023-07-31T02:43:08;3.28;;;2.00;;
51612;SDS011;37694;51.748;14.326;2023-07-31T02:45:34;5.22;;;2.20;;
51612;SDS011;37694;51.748;14.326;2023-07-31T02:48:00;2.83;;;2.00;;
51612;SDS011;37694;51.748;14.326;2023-07-31T02:50:26;2.75;;;2.08;;
51612;SDS011;37694;51.748;14.326;2023-07-31T02:52:52;3.13;;;2.30;;
51612;SDS011;37694;51.748;14.326;2023-07-31T02:55:18;2.92;;;1.88;;
51612;SDS011;37694;51.748;14.326;2023-07-31T02:57:44;4.20;;;2.15;;
51612;SDS011;37694;51.748;14.326;2023-07-31T03:00:09;3.33;;;2.17;;
51612;SDS011;37694;51.748;14.326;2023-07-31T03:02:35;2.63;;;2.03;;
51612;SDS011;37694;51.748;14.326;2023-07-31T03:05:01;3.45;;;2.28;;
51612;SDS011;37694;51.748;14.326;2023-07-31T03:07:26;2.30;;;2.00;;
51612;SDS011;37694;51.748;14.326;2023-07-31T03:09:52;4.60;;;2.33;;
51612;SDS011;37694;51.748;14.326;2023-07-31T03:12:18;3.28;;;2.22;;
51612;SDS011;37694;51.748;14.326;2023-07-31T03:14:44;3.33;;;2.25;;
51612;SDS011;37694;51.748;14.326;2023-07-31T03:17:10;3.15;;;2.17;;
51612;SDS011;37694;51.748;14.326;2023-07-31T03:19:35;2.10;;;1.83;;
51612;SDS011;37694;51.748;14.326;2023-07-31T03:22:01;2.35;;;2.10;;
51612;SDS011;37694;51.748;14.326;2023-07-31T03:24:28;2.55;;;2.20;;
51612;SDS011;37694;51.748;14.326;2023-07-31T03:26:54;1.98;;;1.88;;
51612;SDS011;37694;51.748;14.326;2023-07-31T03:29:19;2.13;;;1.98;;
51612;SDS011;37694;51.748;14.326;2023-07-31T03:31:45;2.95;;;2.10;;
51612;SDS011;37694;51.748;14.326;2023-07-31T03:34:11;3.20;;;1.98;;
51612;SDS011;37694;51.748;14.326;2023-07-31T03:36:37;3.90;;;2.42;;
51612;SDS011;37694;51.748;14.326;2023-07-31T03:39:02;3.22;;;2.28;;
51612;SDS011;37694;51.748;14.326;2023-07-31T03:41:28;7.38;;;2.22;;
51612;SDS011;37694;51.748;14.326;2023-07-31T03:43:54;2.40;;;2.20;;
51612;SDS011;37694;51.748;14.326;2023-07-31T03:46:23;6.55;;;2.45;;
51612;SDS011;37694;51.748;14.326;2023-07-31T03:48:49;4.45;;;1.83;;
51612;SDS011;37694;51.748;14.326;2023-07-31T03:51:15;4.00;;;2.28;;
51612;SDS011;37694;51.748;14.326;2023-07-31T03:53:42;2.83;;;1.90;;
51612;SDS011;37694;51.748;14.326;2023-07-31T03:56:08;4.93;;;1.90;;
51612;SDS011;37694;51.748;14.326;2023-07-31T03:58:33;5.25;;;2.20;;
51612;SDS011;37694;51.748;14.326;2023-07-31T04:01:00;7.10;;;2.20;;
51612;SDS011;37694;51.748;14.326;2023-07-31T04:03:26;2.42;;;1.85;;
51612;SDS011;37694;51.748;14.326;2023-07-31T04:05:53;3.90;;;2.40;;
51612;SDS011;37694;51.748;14.326;2023-07-31T04:08:19;7.57;;;2.78;;
51612;SDS011;37694;51.748;14.326;2023-07-31T04:10:45;5.40;;;2.50;;
51612;SDS011;37694;51.748;14.326;2023-07-31T04:13:10;8.27;;;2.70;;
51612;SDS011;37694;51.748;14.326;2023-07-31T04:15:36;9.05;;;2.92;;
51612;SDS011;37694;51.748;14.326;2023-07-31T04:18:02;5.72;;;2.15;;
51612;SDS011;37694;51.748;14.326;2023-07-31T04:20:27;3.42;;;1.75;;
51612;SDS011;37694;51.748;14.326;2023-07-31T04:22:53;9.82;;;2.20;;
51612;SDS011;37694;51.748;14.326;2023-07-31T04:25:18;5.75;;;2.05;;
51612;SDS011;37694;51.748;14.326;2023-07-31T04:27:44;3.55;;;2.10;;
51612;SDS011;37694;51.748;14.326;2023-07-31T04:30:10;7.88;;;2.20;;
51612;SDS011;37694;51.748;14.326;2023-07-31T04:32:35;6.78;;;2.10;;
51612;SDS011;37694;51.748;14.326;2023-07-31T04:35:01;6.57;;;2.58;;
51612;SDS011;37694;51.748;14.326;2023-07-31T04:37:27;10.02;;;2.53;;
51612;SDS011;37694;51.748;14.326;2023-07-31T04:39:53;7.90;;;1.92;;
51612;SDS011;37694;51.748;14.326;2023-07-31T04:42:19;5.72;;;2.55;;
51612;SDS011;37694;51.748;14.326;2023-07-31T04:44:44;12.25;;;2.13;;
51612;SDS011;37694;51.748;14.326;2023-07-31T04:47:10;3.75;;;2.45;;
51612;SDS011;37694;51.748;14.326;2023-07-31T04:49:36;13.27;;;2.58;;
51612;SDS011;37694;51.748;14.326;2023-07-31T04:52:02;7.25;;;2.55;;
51612;SDS011;37694;51.748;14.326;2023-07-31T04:54:27;3.60;;;2.13;;
51612;SDS011;37694;51.748;14.326;2023-07-31T04:56:53;9.25;;;2.50;;
51612;SDS011;37694;51.748;14.326;2023-07-31T04:59:19;4.85;;;1.88;;
51612;SDS011;37694;51.748;14.326;2023-07-31T05:01:44;10.80;;;2.30;;
51612;SDS011;37694;51.748;14.326;2023-07-31T05:04:12;6.85;;;2.63;;
51612;SDS011;37694;51.748;14.326;2023-07-31T05:06:39;4.45;;;2.45;;
51612;SDS011;37694;51.748;14.326;2023-07-31T05:09:05;5.03;;;2.17;;
51612;SDS011;37694;51.748;14.326;2023-07-31T05:11:31;11.60;;;2.47;;
51612;SDS011;37694;51.748;14.326;2023-07-31T05:13:56;5.38;;;2.22;;
51612;SDS011;37694;51.748;14.326;2023-07-31T05:16:22;6.68;;;2.53;;
51612;SDS011;37694;51.748;14.326;2023-07-31T05:18:47;6.88;;;2.72;;
51612;SDS011;37694;51.748;14.326;2023-07-31T05:21:13;5.05;;;2.20;;
51612;SDS011;37694;51.748;14.326;2023-07-31T05:23:39;8.77;;;2.20;;
51612;SDS011;37694;51.748;14.326;2023-07-31T05:26:05;10.93;;;2.90;;
51612;SDS011;37694;51.748;14.326;2023-07-31T05:28:31;7.03;;;2.42;;
51612;SDS011;37694;51.748;14.326;2023-07-31T05:30:59;8.82;;;2.15;;
51612;SDS011;37694;51.748;14.326;2023-07-31T05:33:27;10.13;;;2.97;;
51612;SDS011;37694;51.748;14.326;2023-07-31T05:35:53;13.65;;;2.83;;
51612;SDS011;37694;51.748;14.326;2023-07-31T05:38:19;11.77;;;2.75;;
51612;SDS011;37694;51.748;14.326;2023-07-31T05:40:44;21.65;;;3.25;;
51612;SDS011;37694;51.748;14.326;2023-07-31T05:43:10;12.98;;;2.30;;
51612;SDS011;37694;51.748;14.326;2023-07-31T05:45:36;13.30;;;2.80;;
51612;SDS011;37694;51.748;14.326;2023-07-31T05:48:02;8.30;;;2.50;;
51612;SDS011;37694;51.748;14.326;2023-07-31T05:50:28;12.75;;;2.47;;
51612;SDS011;37694;51.748;14.326;2023-07-31T05:52:54;17.25;;;3.10;;
51612;SDS011;37694;51.748;14.326;2023-07-31T05:55:20;14.23;;;2.13;;
51612;SDS011;37694;51.748;14.326;2023-07-31T05:57:46;16.30;;;2.63;;
51612;SDS011;37694;51.748;14.326;2023-07-31T06:00:12;13.30;;;2.65;;
51612;SDS011;37694;51.748;14.326;2023-07-31T06:02:38;9.05;;;2.38;;
51612;SDS011;37694;51.748;14.326;2023-07-31T06:05:04;12.82;;;2.70;;
51612;SDS011;37694;51.748;14.326;2023-07-31T06:07:33;11.50;;;2.70;;
51612;SDS011;37694;51.748;14.326;2023-07-31T06:09:59;21.38;;;4.07;;
51612;SDS011;37694;51.748;14.326;2023-07-31T06:12:29;35.95;;;3.88;;
51612;SDS011;37694;51.748;14.326;2023-07-31T06:14:56;18.00;;;3.25;;
51612;SDS011;37694;51.748;14.326;2023-07-31T06:17:21;32.17;;;4.22;;
51612;SDS011;37694;51.748;14.326;2023-07-31T06:19:47;21.48;;;3.88;;
51612;SDS011;37694;51.748;14.326;2023-07-31T06:22:13;35.00;;;5.85;;
51612;SDS011;37694;51.748;14.326;2023-07-31T06:24:38;33.00;;;4.95;;
51612;SDS011;37694;51.748;14.326;2023-07-31T06:27:04;28.90;;;4.10;;
51612;SDS011;37694;51.748;14.326;2023-07-31T06:29:31;28.60;;;4.85;;
51612;SDS011;37694;51.748;14.326;2023-07-31T06:31:56;38.33;;;4.32;;
51612;SDS011;37694;51.748;14.326;2023-07-31T06:34:22;30.00;;;4.25;;
51612;SDS011;37694;51.748;14.326;2023-07-31T06:36:48;32.47;;;5.22;;
51612;SDS011;37694;51.748;14.326;2023-07-31T06:39:13;35.92;;;4.53;;
51612;SDS011;37694;51.748;14.326;2023-07-31T06:41:39;30.23;;;4.57;;
51612;SDS011;37694;51.748;14.326;2023-07-31T06:44:05;30.95;;;4.40;;
51612;SDS011;37694;51.748;14.326;2023-07-31T06:46:31;34.10;;;4.85;;
51612;SDS011;37694;51.748;14.326;2023-07-31T06:48:56;23.90;;;3.65;;
51612;SDS011;37694;51.748;14.326;2023-07-31T06:51:22;18.30;;;3.75;;
51612;SDS011;37694;51.748;14.326;2023-07-31T06:53:47;21.73;;;4.10;;
51612;SDS011;37694;51.748;14.326;2023-07-31T06:56:13;16.73;;;2.92;;
51612;SDS011;37694;51.748;14.326;2023-07-31T06:58:39;13.45;;;3.22;;
51612;SDS011;37694;51.748;14.326;2023-07-31T07:01:04;18.77;;;3.70;;
51612;SDS011;37694;51.748;14.326;2023-07-31T07:03:30;12.85;;;3.33;;
51612;SDS011;37694;51.748;14.326;2023-07-31T07:05:57;19.90;;;3.50;;
51612;SDS011;37694;51.748;14.326;2023-07-31T07:08:23;20.92;;;3.65;;
51612;SDS011;37694;51.748;14.326;2023-07-31T07:10:49;17.90;;;3.40;;
51612;SDS011;37694;51.748;14.326;2023-07-31T07:13:15;18.13;;;3.85;;
51612;SDS011;37694;51.748;14.326;2023-07-31T07:15:41;15.38;;;3.15;;
51612;SDS011;37694;51.748;14.326;2023-07-31T07:18:06;17.23;;;3.33;;
51612;SDS011;37694;51.748;14.326;2023-07-31T07:20:32;14.60;;;3.50;;
51612;SDS011;37694;51.748;14.326;2023-07-31T07:22:58;18.23;;;3.20;;
51612;SDS011;37694;51.748;14.326;2023-07-31T07:25:23;12.32;;;3.13;;
51612;SDS011;37694;51.748;14.326;2023-07-31T07:27:49;10.52;;;3.20;;
51612;SDS011;37694;51.748;14.326;2023-07-31T07:30:15;17.45;;;3.65;;
51612;SDS011;37694;51.748;14.326;2023-07-31T07:32:40;13.07;;;3.15;;
51612;SDS011;37694;51.748;14.326;2023-07-31T07:35:06;12.45;;;2.88;;
51612;SDS011;37694;51.748;14.326;2023-07-31T07:37:32;10.77;;;2.80;;
51612;SDS011;37694;51.748;14.326;2023-07-31T07:39:58;15.82;;;2.83;;
51612;SDS011;37694;51.748;14.326;2023-07-31T07:42:24;10.13;;;2.85;;
51612;SDS011;37694;51.748;14.326;2023-07-31T07:44:50;12.82;;;3.03;;
51612;SDS011;37694;51.748;14.326;2023-07-31T07:47:15;11.40;;;3.00;;
51612;SDS011;37694;51.748;14.326;2023-07-31T07:49:41;11.25;;;3.35;;
51612;SDS011;37694;51.748;14.326;2023-07-31T07:52:07;10.20;;;3.08;;
51612;SDS011;37694;51.748;14.326;2023-07-31T07:54:32;11.50;;;3.00;;
51612;SDS011;37694;51.748;14.326;2023-07-31T07:56:58;7.13;;;2.50;;
51612;SDS011;37694;51.748;14.326;2023-07-31T07:59:24;10.38;;;3.10;;
51612;SDS011;37694;51.748;14.326;2023-07-31T08:01:50;10.75;;;2.97;;
51612;SDS011;37694;51.748;14.326;2023-07-31T08:04:15;10.60;;;2.72;;
51612;SDS011;37694;51.748;14.326;2023-07-31T08:06:41;7.60;;;2.90;;
51612;SDS011;37694;51.748;14.326;2023-07-31T08:09:07;8.70;;;2.90;;
51612;SDS011;37694;51.748;14.326;2023-07-31T08:11:33;6.22;;;2.80;;
51612;SDS011;37694;51.748;14.326;2023-07-31T08:13:59;7.05;;;2.88;;
51612;SDS011;37694;51.748;14.326;2023-07-31T08:16:25;7.25;;;2.95;;
51612;SDS011;37694;51.748;14.326;2023-07-31T08:18:51;9.23;;;3.17;;
51612;SDS011;37694;51.748;14.326;2023-07-31T08:21:16;6.60;;;2.60;;
51612;SDS011;37694;51.748;14.326;2023-07-31T08:23:42;6.38;;;3.17;;
51612;SDS011;37694;51.748;14.326;2023-07-31T08:26:08;12.40;;;3.58;;
51612;SDS011;37694;51.748;14.326;2023-07-31T08:28:39;7.95;;;3.00;;
51612;SDS011;37694;51.748;14.326;2023-07-31T08:31:05;6.13;;;2.88;;
51612;SDS011;37694;51.748;14.326;2023-07-31T08:33:30;9.82;;;2.85;;
51612;SDS011;37694;51.748;14.326;2023-07-31T08:35:56;9.45;;;3.45;;
51612;SDS011;37694;51.748;14.326;2023-07-31T08:38:22;9.23;;;3.05;;
51612;SDS011;37694;51.748;14.326;2023-07-31T08:40:50;6.75;;;3.10;;
51612;SDS011;37694;51.748;14.326;2023-07-31T08:43:16;8.82;;;3.15;;
51612;SDS011;37694;51.748;14.326;2023-07-31T08:45:42;11.80;;;3.80;;
51612;SDS011;37694;51.748;14.326;2023-07-31T08:48:08;5.20;;;2.88;;
51612;SDS011;37694;51.748;14.326;2023-07-31T08:50:34;7.72;;;3.28;;
51612;SDS011;37694;51.748;14.326;2023-07-31T08:53:01;7.43;;;3.00;;
51612;SDS011;37694;51.748;14.326;2023-07-31T08:55:27;6.53;;;2.72;;
51612;SDS011;37694;51.748;14.326;2023-07-31T08:57:53;6.28;;;3.17;;
51612;SDS011;37694;51.748;14.326;2023-07-31T09:00:20;6.20;;;3.38;;
51612;SDS011;37694;51.748;14.326;2023-07-31T09:05:28;6.53;;;3.30;;
51612;SDS011;37694;51.748;14.326;2023-07-31T09:07:55;7.30;;;2.55;;
51612;SDS011;37694;51.748;14.326;2023-07-31T09:10:22;6.55;;;2.72;;
51612;SDS011;37694;51.748;14.326;2023-07-31T09:12:51;5.35;;;3.40;;
51612;SDS011;37694;51.748;14.326;2023-07-31T09:15:17;5.88;;;2.83;;
51612;SDS011;37694;51.748;14.326;2023-07-31T09:17:44;7.25;;;3.58;;
51612;SDS011;37694;51.748;14.326;2023-07-31T09:20:17;8.13;;;3.42;;
51612;SDS011;37694;51.748;14.326;2023-07-31T09:22:44;8.07;;;3.22;;
51612;SDS011;37694;51.748;14.326;2023-07-31T09:25:23;6.30;;;2.90;;
51612;SDS011;37694;51.748;14.326;2023-07-31T09:27:57;5.97;;;2.95;;
51612;SDS011;37694;51.748;14.326;2023-07-31T09:30:27;6.72;;;3.63;;
51612;SDS011;37694;51.748;14.326;2023-07-31T09:33:05;7.28;;;2.97;;
51612;SDS011;37694;51.748;14.326;2023-07-31T09:35:32;5.93;;;3.40;;
51612;SDS011;37694;51.748;14.326;2023-07-31T09:38:06;7.07;;;3.85;;
51612;SDS011;37694;51.748;14.326;2023-07-31T09:40:35;10.73;;;3.13;;
51612;SDS011;37694;51.748;14.326;2023-07-31T09:43:03;4.47;;;3.10;;
51612;SDS011;37694;51.748;14.326;2023-07-31T09:45:33;4.57;;;2.60;;
51612;SDS011;37694;51.748;14.326;2023-07-31T09:48:00;5.45;;;3.17;;
51612;SDS011;37694;51.748;14.326;2023-07-31T09:50:26;5.03;;;2.72;;
51612;SDS011;37694;51.748;14.326;2023-07-31T09:52:51;6.03;;;3.13;;
51612;SDS011;37694;51.748;14.326;2023-07-31T09:55:18;6.88;;;3.92;;
51612;SDS011;37694;51.748;14.326;2023-07-31T09:57:45;6.35;;;3.30;;
51612;SDS011;37694;51.748;14.326;2023-07-31T10:00:13;5.03;;;3.22;;
51612;SDS011;37694;51.748;14.326;2023-07-31T10:02:40;6.18;;;3.58;;
51612;SDS011;37694;51.748;14.326;2023-07-31T10:05:06;3.42;;;2.65;;
51612;SDS011;37694;51.748;14.326;2023-07-31T10:07:42;5.40;;;2.85;;
51612;SDS011;37694;51.748;14.326;2023-07-31T10:10:13;5.13;;;2.92;;
51612;SDS011;37694;51.748;14.326;2023-07-31T10:12:41;9.68;;;3.38;;
51612;SDS011;37694;51.748;14.326;2023-07-31T10:15:08;4.15;;;2.92;;
51612;SDS011;37694;51.748;14.326;2023-07-31T10:17:35;4.30;;;3.20;;
51612;SDS011;37694;51.748;14.326;2023-07-31T10:20:02;3.83;;;3.08;;
51612;SDS011;37694;51.748;14.326;2023-07-31T10:22:31;6.28;;;3.13;;
51612;SDS011;37694;51.748;14.326;2023-07-31T10:24:58;7.65;;;3.38;;
51612;SDS011;37694;51.748;14.326;2023-07-31T10:27:25;4.05;;;3.17;;
51612;SDS011;37694;51.748;14.326;2023-07-31T10:29:51;6.13;;;3.30;;
51612;SDS011;37694;51.748;14.326;2023-07-31T10:32:20;4.00;;;2.90;;
51612;SDS011;37694;51.748;14.326;2023-07-31T10:34:47;4.72;;;2.80;;
51612;SDS011;37694;51.748;14.326;2023-07-31T10:40:04;3.80;;;2.90;;
51612;SDS011;37694;51.748;14.326;2023-07-31T10:42:36;3.80;;;2.55;;
51612;SDS011;37694;51.748;14.326;2023-07-31T10:45:05;4.07;;;3.17;;
51612;SDS011;37694;51.748;14.326;2023-07-31T10:47:42;4.30;;;2.55;;
51612;SDS011;37694;51.748;14.326;2023-07-31T10:50:16;4.22;;;3.00;;
51612;SDS011;37694;51.748;14.326;2023-07-31T10:52:48;4.03;;;2.90;;
51612;SDS011;37694;51.748;14.326;2023-07-31T10:55:15;4.35;;;2.78;;
51612;SDS011;37694;51.748;14.326;2023-07-31T10:57:50;4.40;;;3.38;;
51612;SDS011;37694;51.748;14.326;2023-07-31T11:00:20;3.03;;;2.72;;
51612;SDS011;37694;51.748;14.326;2023-07-31T11:05:42;3.97;;;3.20;;
51612;SDS011;37694;51.748;14.326;2023-07-31T11:08:23;5.63;;;3.35;;
51612;SDS011;37694;51.748;14.326;2023-07-31T11:11:11;2.60;;;2.40;;
51612;SDS011;37694;51.748;14.326;2023-07-31T11:13:44;6.40;;;3.00;;
51612;SDS011;37694;51.748;14.326;2023-07-31T11:16:14;3.75;;;2.90;;
51612;SDS011;37694;51.748;14.326;2023-07-31T11:18:40;6.93;;;3.35;;
51612;SDS011;37694;51.748;14.326;2023-07-31T11:21:08;4.32;;;3.17;;
51612;SDS011;37694;51.748;14.326;2023-07-31T11:23:37;8.40;;;3.40;;
51612;SDS011;37694;51.748;14.326;2023-07-31T11:26:04;5.75;;;3.00;;
51612;SDS011;37694;51.748;14.326;2023-07-31T11:28:31;9.27;;;3.30;;
51612;SDS011;37694;51.748;14.326;2023-07-31T11:31:01;4.50;;;2.85;;
51612;SDS011;37694;51.748;14.326;2023-07-31T11:33:27;4.97;;;3.03;;
51612;SDS011;37694;51.748;14.326;2023-07-31T11:35:53;5.13;;;3.20;;
51612;SDS011;37694;51.748;14.326;2023-07-31T11:38:27;4.38;;;2.75;;
51612;SDS011;37694;51.748;14.326;2023-07-31T11:40:58;4.60;;;3.10;;
51612;SDS011;37694;51.748;14.326;2023-07-31T11:43:28;5.20;;;3.10;;
51612;SDS011;37694;51.748;14.326;2023-07-31T11:45:55;7.95;;;4.00;;
51612;SDS011;37694;51.748;14.326;2023-07-31T11:48:22;4.68;;;3.17;;
51612;SDS011;37694;51.748;14.326;2023-07-31T11:50:50;6.75;;;3.63;;
51612;SDS011;37694;51.748;14.326;2023-07-31T11:53:19;6.18;;;3.65;;
51612;SDS011;37694;51.748;14.326;2023-07-31T11:55:50;5.55;;;3.35;;
51612;SDS011;37694;51.748;14.326;2023-07-31T11:58:16;4.93;;;3.15;;
51612;SDS011;37694;51.748;14.326;2023-07-31T12:00:43;3.97;;;3.58;;
51612;SDS011;37694;51.748;14.326;2023-07-31T12:03:09;6.70;;;3.38;;
51612;SDS011;37694;51.748;14.326;2023-07-31T12:05:36;5.72;;;3.55;;
51612;SDS011;37694;51.748;14.326;2023-07-31T12:08:08;6.00;;;3.42;;
51612;SDS011;37694;51.748;14.326;2023-07-31T12:10:36;5.20;;;3.20;;
51612;SDS011;37694;51.748;14.326;2023-07-31T12:13:05;7.15;;;3.10;;
51612;SDS011;37694;51.748;14.326;2023-07-31T12:15:33;4.70;;;3.38;;
51612;SDS011;37694;51.748;14.326;2023-07-31T12:18:27;6.50;;;3.33;;
51612;SDS011;37694;51.748;14.326;2023-07-31T12:20:59;4.55;;;3.25;;
51612;SDS011;37694;51.748;14.326;2023-07-31T12:23:30;6.78;;;3.72;;
51612;SDS011;37694;51.748;14.326;2023-07-31T12:31:03;6.97;;;3.30;;
51612;SDS011;37694;51.748;14.326;2023-07-31T12:33:33;5.28;;;3.10;;
51612;SDS011;37694;51.748;14.326;2023-07-31T12:36:00;5.88;;;3.35;;
51612;SDS011;37694;51.748;14.326;2023-07-31T12:38:28;7.13;;;3.28;;
51612;SDS011;37694;51.748;14.326;2023-07-31T12:40:54;5.25;;;3.50;;
51612;SDS011;37694;51.748;14.326;2023-07-31T12:43:19;5.55;;;3.70;;
51612;SDS011;37694;51.748;14.326;2023-07-31T12:45:45;3.65;;;3.20;;
51612;SDS011;37694;51.748;14.326;2023-07-31T12:48:12;6.05;;;3.75;;
51612;SDS011;37694;51.748;14.326;2023-07-31T12:50:38;6.03;;;3.58;;
51612;SDS011;37694;51.748;14.326;2023-07-31T12:53:04;4.35;;;3.13;;
51612;SDS011;37694;51.748;14.326;2023-07-31T12:55:30;9.63;;;4.00;;
51612;SDS011;37694;51.748;14.326;2023-07-31T12:57:57;4.80;;;3.28;;
51612;SDS011;37694;51.748;14.326;2023-07-31T13:00:23;4.53;;;3.40;;
51612;SDS011;37694;51.748;14.326;2023-07-31T13:02:50;7.10;;;3.40;;
51612;SDS011;37694;51.748;14.326;2023-07-31T13:05:16;5.18;;;3.33;;
51612;SDS011;37694;51.748;14.326;2023-07-31T13:07:42;6.28;;;3.65;;
51612;SDS011;37694;51.748;14.326;2023-07-31T13:10:08;6.70;;;3.33;;
51612;SDS011;37694;51.748;14.326;2023-07-31T13:12:34;5.63;;;3.47;;
51612;SDS011;37694;51.748;14.326;2023-07-31T13:14:59;4.72;;;3.00;;
51612;SDS011;37694;51.748;14.326;2023-07-31T13:17:25;5.38;;;3.58;;
51612;SDS011;37694;51.748;14.326;2023-07-31T13:19:51;4.38;;;3.42;;
51612;SDS011;37694;51.748;14.326;2023-07-31T13:22:17;5.13;;;3.50;;
51612;SDS011;37694;51.748;14.326;2023-07-31T13:24:43;3.50;;;2.78;;
51612;SDS011;37694;51.748;14.326;2023-07-31T13:27:08;3.67;;;2.95;;
51612;SDS011;37694;51.748;14.326;2023-07-31T13:29:34;3.50;;;2.97;;
51612;SDS011;37694;51.748;14.326;2023-07-31T13:32:00;7.00;;;3.58;;
51612;SDS011;37694;51.748;14.326;2023-07-31T13:34:25;5.45;;;3.20;;
51612;SDS011;37694;51.748;14.326;2023-07-31T13:36:51;6.00;;;3.47;;
51612;SDS011;37694;51.748;14.326;2023-07-31T13:39:18;5.03;;;3.15;;
51612;SDS011;37694;51.748;14.326;2023-07-31T13:41:44;5.43;;;3.60;;
51612;SDS011;37694;51.748;14.326;2023-07-31T13:44:09;5.85;;;3.45;;
51612;SDS011;37694;51.748;14.326;2023-07-31T13:46:35;4.63;;;3.10;;
51612;SDS011;37694;51.748;14.326;2023-07-31T13:49:01;6.55;;;3.70;;
51612;SDS011;37694;51.748;14.326;2023-07-31T13:51:26;4.22;;;3.22;;
51612;SDS011;37694;51.748;14.326;2023-07-31T13:53:53;5.72;;;4.32;;
51612;SDS011;37694;51.748;14.326;2023-07-31T13:56:19;4.78;;;3.17;;
51612;SDS011;37694;51.748;14.326;2023-07-31T13:58:44;5.15;;;3.58;;
51612;SDS011;37694;51.748;14.326;2023-07-31T14:01:10;4.70;;;3.58;;
51612;SDS011;37694;51.748;14.326;2023-07-31T14:03:36;4.25;;;3.38;;
51612;SDS011;37694;51.748;14.326;2023-07-31T14:06:02;4.25;;;3.20;;
51612;SDS011;37694;51.748;14.326;2023-07-31T14:08:27;2.80;;;2.58;;
51612;SDS011;37694;51.748;14.326;2023-07-31T14:10:54;5.00;;;3.25;;
51612;SDS011;37694;51.748;14.326;2023-07-31T14:13:20;4.47;;;3.00;;
51612;SDS011;37694;51.748;14.326;2023-07-31T14:15:46;5.35;;;3.22;;
51612;SDS011;37694;51.748;14.326;2023-07-31T14:18:11;3.00;;;2.70;;
51612;SDS011;37694;51.748;14.326;2023-07-31T14:20:37;6.65;;;3.53;;
51612;SDS011;37694;51.748;14.326;2023-07-31T14:23:03;5.82;;;3.25;;
51612;SDS011;37694;51.748;14.326;2023-07-31T14:25:28;4.93;;;3.58;;
51612;SDS011;37694;51.748;14.326;2023-07-31T14:27:54;4.25;;;2.95;;
51612;SDS011;37694;51.748;14.326;2023-07-31T14:30:20;4.85;;;3.40;;
51612;SDS011;37694;51.748;14.326;2023-07-31T14:32:46;4.75;;;3.25;;
51612;SDS011;37694;51.748;14.326;2023-07-31T14:35:12;4.82;;;3.30;;
51612;SDS011;37694;51.748;14.326;2023-07-31T14:37:41;5.05;;;3.42;;
51612;SDS011;37694;51.748;14.326;2023-07-31T14:40:08;5.05;;;2.80;;
51612;SDS011;37694;51.748;14.326;2023-07-31T14:42:35;4.40;;;2.90;;
51612;SDS011;37694;51.748;14.326;2023-07-31T14:45:01;11.02;;;3.80;;
51612;SDS011;37694;51.748;14.326;2023-07-31T14:47:28;4.55;;;3.22;;
51612;SDS011;37694;51.748;14.326;2023-07-31T14:49:55;4.20;;;2.90;;
51612;SDS011;37694;51.748;14.326;2023-07-31T14:52:21;3.97;;;2.90;;